createdAt,value
2022-09-28T00:00:15.200Z,97150.34
2022-09-28T00:02:41.635Z,97146.06
2022-09-28T00:05:08.501Z,97147.91
2022-09-28T00:07:35.013Z,97143.72
2022-09-28T00:10:01.432Z,97137.78
2022-09-28T00:12:28.430Z,97125.16
2022-09-28T00:14:54.923Z,97128.63
2022-09-28T00:17:21.286Z,97113.25
2022-09-28T00:19:47.576Z,97115.25
2022-09-28T00:22:15.048Z,97113.56
2022-09-28T00:24:41.429Z,97106.75
2022-09-28T00:27:07.839Z,97097.00
2022-09-28T00:29:36.250Z,97088.16
2022-09-28T00:32:13.065Z,97076.91
2022-09-28T00:34:44.335Z,97069.31
2022-09-28T00:37:10.917Z,97060.66
2022-09-28T00:39:38.840Z,97052.06
2022-09-28T00:42:13.276Z,97048.41
2022-09-28T00:44:59.079Z,97052.31
2022-09-28T00:47:49.290Z,97053.38
2022-09-28T00:50:28.994Z,97048.50
2022-09-28T00:53:13.075Z,97036.91
2022-09-28T00:55:58.930Z,97019.19
2022-09-28T00:58:29.871Z,97018.50
2022-09-28T01:00:59.125Z,97018.41
2022-09-28T01:03:28.114Z,97006.75
2022-09-28T01:05:57.658Z,97005.41
2022-09-28T01:08:27.357Z,96996.38
2022-09-28T01:10:53.878Z,96989.78
2022-09-28T01:13:23.570Z,96981.31
2022-09-28T01:16:02.219Z,96979.25
2022-09-28T01:18:31.756Z,96981.31
2022-09-28T01:21:05.389Z,96971.03
2022-09-28T01:23:37.816Z,96972.88
2022-09-28T01:26:28.910Z,96965.25
2022-09-28T01:29:04.304Z,96955.78
2022-09-28T01:31:36.138Z,96953.25
2022-09-28T01:34:14.119Z,96949.09
2022-09-28T01:36:54.998Z,96940.91
2022-09-28T01:39:24.869Z,96937.19
2022-09-28T01:41:55.616Z,96941.25
2022-09-28T01:44:25.696Z,96935.13
2022-09-28T01:46:53.841Z,96934.41
2022-09-28T01:49:28.456Z,96935.47
2022-09-28T01:52:13.893Z,96930.47
2022-09-28T01:54:56.973Z,96922.59
2022-09-28T01:57:43.154Z,96915.66
2022-09-28T02:00:13.088Z,96912.06
2022-09-28T02:02:45.302Z,96911.25
2022-09-28T02:05:20.422Z,96902.56
2022-09-28T02:07:55.655Z,96899.84
2022-09-28T02:10:31.993Z,96897.84
2022-09-28T02:13:05.236Z,96883.50
2022-09-28T02:15:54.410Z,96891.72
2022-09-28T02:18:20.879Z,96885.00
2022-09-28T02:20:56.366Z,96886.72
2022-09-28T02:23:26.453Z,96878.28
2022-09-28T02:26:06.490Z,96873.09
2022-09-28T02:28:33.043Z,96877.97
2022-09-28T02:30:59.400Z,96868.94
2022-09-28T02:33:32.878Z,96872.41
2022-09-28T02:36:02.343Z,96868.13
2022-09-28T02:38:30.179Z,96867.22
2022-09-28T02:41:05.982Z,96855.53
2022-09-28T02:43:50.000Z,96855.19
2022-09-28T02:46:35.387Z,96851.25
2022-09-28T02:49:28.093Z,96852.31
2022-09-28T02:52:19.468Z,96849.41
2022-09-28T02:55:21.139Z,96837.94
2022-09-28T02:57:56.271Z,96834.81
2022-09-28T03:00:24.466Z,96824.06
2022-09-28T03:03:12.230Z,96828.00
2022-09-28T03:05:52.747Z,96822.44
2022-09-28T03:08:28.625Z,96823.47
2022-09-28T03:11:15.565Z,96822.91
2022-09-28T03:13:42.558Z,96818.97
2022-09-28T03:16:17.597Z,96811.56
2022-09-28T03:18:44.832Z,96815.94
2022-09-28T03:21:12.787Z,96816.09
2022-09-28T03:23:39.706Z,96809.50
2022-09-28T03:26:08.788Z,96816.19
2022-09-28T03:28:35.086Z,96818.03
2022-09-28T03:31:01.941Z,96813.31
2022-09-28T03:33:28.413Z,96808.78
2022-09-28T03:35:54.742Z,96809.84
2022-09-28T03:38:21.401Z,96801.38
2022-09-28T03:40:58.814Z,96815.03
2022-09-28T03:43:26.565Z,96810.84
2022-09-28T03:45:58.325Z,96810.16
2022-09-28T03:48:31.866Z,96802.38
2022-09-28T03:51:01.139Z,96801.13
2022-09-28T03:53:28.522Z,96805.97
2022-09-28T03:55:55.262Z,96804.91
2022-09-28T03:58:22.845Z,96807.09
2022-09-28T04:00:50.334Z,96798.56
2022-09-28T04:03:16.968Z,96793.78
2022-09-28T04:05:51.181Z,96801.91
2022-09-28T04:08:18.012Z,96784.16
2022-09-28T04:10:44.561Z,96791.81
2022-09-28T04:13:11.077Z,96792.16
2022-09-28T04:15:37.720Z,96782.31
2022-09-28T04:18:08.713Z,96790.88
2022-09-28T04:20:35.049Z,96785.03
2022-09-28T04:23:01.507Z,96782.97
2022-09-28T04:25:27.972Z,96784.03
2022-09-28T04:27:54.461Z,96783.53
2022-09-28T04:30:20.925Z,96784.34
2022-09-28T04:32:47.691Z,96784.34
2022-09-28T04:35:14.587Z,96804.94
2022-09-28T04:37:41.048Z,96804.81
2022-09-28T04:40:08.200Z,96798.31
2022-09-28T04:42:34.585Z,96800.06
2022-09-28T04:45:00.916Z,96800.66
2022-09-28T04:47:29.256Z,96799.88
2022-09-28T04:49:55.588Z,96797.09
2022-09-28T04:52:22.017Z,96793.75
2022-09-28T04:54:48.331Z,96801.97
2022-09-28T04:57:14.816Z,96804.97
2022-09-28T04:59:41.214Z,96813.75
2022-09-28T05:02:07.749Z,96826.72
2022-09-28T05:04:34.160Z,96826.59
2022-09-28T05:07:00.910Z,96828.13
2022-09-28T05:09:27.404Z,96820.59
2022-09-28T05:11:53.853Z,96823.72
2022-09-28T05:14:20.391Z,96830.31
2022-09-28T05:16:46.783Z,96842.22
2022-09-28T05:19:13.410Z,96835.63
2022-09-28T05:21:40.150Z,96831.09
2022-09-28T05:24:06.585Z,96821.19
2022-09-28T05:26:35.667Z,96822.22
2022-09-28T05:29:01.934Z,96825.91
2022-09-28T05:31:28.351Z,96831.00
2022-09-28T05:33:54.728Z,96833.88
2022-09-28T05:36:22.489Z,96834.34
2022-09-28T05:38:48.959Z,96840.00
2022-09-28T05:41:15.528Z,96844.53
2022-09-28T05:43:43.411Z,96842.22
2022-09-28T05:46:09.789Z,96845.94
2022-09-28T05:48:36.103Z,96841.19
2022-09-28T05:51:04.061Z,96836.69
2022-09-28T05:53:30.455Z,96835.28
2022-09-28T05:56:00.116Z,96833.78
2022-09-28T05:58:28.160Z,96838.88
2022-09-28T06:00:58.434Z,96840.84
2022-09-28T06:03:25.249Z,96853.22
2022-09-28T06:05:51.615Z,96856.91
2022-09-28T06:08:18.305Z,96865.81
2022-09-28T06:10:44.677Z,96860.63
2022-09-28T06:13:11.119Z,96866.97
2022-09-28T06:15:37.656Z,96871.50
2022-09-28T06:18:11.412Z,96875.06
2022-09-28T06:20:39.742Z,96873.22
2022-09-28T06:23:06.421Z,96877.63
2022-09-28T06:25:33.117Z,96869.19
2022-09-28T06:28:02.223Z,96870.34
2022-09-28T06:30:32.010Z,96869.19
2022-09-28T06:33:00.826Z,96872.41
2022-09-28T06:35:29.479Z,96870.56
2022-09-28T06:37:57.025Z,96880.97
2022-09-28T06:40:23.849Z,96879.47
2022-09-28T06:42:58.684Z,96877.50
2022-09-28T06:45:29.717Z,96889.31
2022-09-28T06:47:57.271Z,96889.66
2022-09-28T06:50:29.027Z,96892.25
2022-09-28T06:52:55.806Z,96901.97
2022-09-28T06:55:22.520Z,96903.81
2022-09-28T06:57:57.976Z,96907.41
2022-09-28T07:00:24.681Z,96909.34
2022-09-28T07:02:51.145Z,96916.19
2022-09-28T07:05:17.584Z,96919.63
2022-09-28T07:07:43.991Z,96921.16
2022-09-28T07:10:12.201Z,96918.63
2022-09-28T07:12:38.804Z,96920.94
2022-09-28T07:15:06.532Z,96929.50
2022-09-28T07:17:36.003Z,96938.09
2022-09-28T07:20:14.965Z,96941.22
2022-09-28T07:22:44.132Z,96944.84
2022-09-28T07:25:10.603Z,96953.94
2022-09-28T07:27:36.971Z,96956.34
2022-09-28T07:30:05.779Z,96956.59
2022-09-28T07:32:32.399Z,96967.47
2022-09-28T07:34:59.198Z,96964.34
2022-09-28T07:37:27.086Z,96968.41
2022-09-28T07:39:53.426Z,96967.59
2022-09-28T07:42:19.749Z,96971.41
2022-09-28T07:44:47.312Z,96982.16
2022-09-28T07:47:13.652Z,96983.69
2022-09-28T07:49:39.992Z,96991.41
2022-09-28T07:52:06.476Z,96982.59
2022-09-28T07:54:32.966Z,96983.38
2022-09-28T07:56:59.541Z,96988.09
2022-09-28T07:59:25.997Z,96987.84
2022-09-28T08:01:52.555Z,96980.28
2022-09-28T08:04:19.172Z,96993.31
2022-09-28T08:06:45.589Z,96994.78
2022-09-28T08:09:12.049Z,96991.38
2022-09-28T08:11:38.392Z,96986.91
2022-09-28T08:14:04.822Z,96990.03
2022-09-28T08:16:31.331Z,96984.78
2022-09-28T08:18:57.976Z,96987.38
2022-09-28T08:21:24.499Z,96988.75
2022-09-28T08:23:51.241Z,96987.16
2022-09-28T08:26:17.543Z,96993.47
2022-09-28T08:28:44.465Z,96999.25
2022-09-28T08:31:11.211Z,96997.53
2022-09-28T08:33:39.527Z,96987.50
2022-09-28T08:36:06.126Z,96995.19
2022-09-28T08:38:33.796Z,96990.66
2022-09-28T08:41:21.685Z,96996.28
2022-09-28T08:44:00.406Z,96993.19
2022-09-28T08:46:33.671Z,96987.38
2022-09-28T08:49:25.703Z,96996.09
2022-09-28T08:52:11.407Z,96989.28
2022-09-28T08:54:44.769Z,96987.97
2022-09-28T08:57:19.140Z,96996.38
2022-09-28T08:59:51.596Z,96994.97
2022-09-28T09:02:23.494Z,97002.16
2022-09-28T09:04:51.078Z,97004.72
2022-09-28T09:07:31.961Z,97010.06
2022-09-28T09:10:11.220Z,97016.31
2022-09-28T09:12:47.800Z,97015.34
2022-09-28T09:15:33.803Z,97014.63
2022-09-28T09:18:14.616Z,97015.97
2022-09-28T09:20:50.332Z,97026.34
2022-09-28T09:23:27.828Z,97021.41
2022-09-28T09:26:03.510Z,97011.22
2022-09-28T09:28:55.411Z,97026.63
2022-09-28T09:31:52.566Z,97010.88
2022-09-28T09:34:33.995Z,97022.22
2022-09-28T09:37:09.112Z,97016.34
2022-09-28T09:40:07.842Z,97015.47
2022-09-28T09:42:52.368Z,97021.50
2022-09-28T09:45:31.071Z,97025.19
2022-09-28T09:48:04.480Z,97020.75
2022-09-28T09:50:36.484Z,97029.75
2022-09-28T09:53:11.630Z,97037.28
2022-09-28T09:55:45.429Z,97033.34
2022-09-28T09:58:21.225Z,97042.09
2022-09-28T10:00:52.334Z,97047.66
2022-09-28T10:03:25.355Z,97046.28
2022-09-28T10:05:58.037Z,97045.00
2022-09-28T10:08:27.220Z,97049.00
2022-09-28T10:11:02.601Z,97046.06
2022-09-28T10:13:29.238Z,97040.41
2022-09-28T10:15:55.918Z,97036.09
2022-09-28T10:18:22.485Z,97031.63
2022-09-28T10:20:49.059Z,97018.38
2022-09-28T10:23:26.868Z,97027.84
2022-09-28T10:25:59.532Z,97025.91
2022-09-28T10:28:54.037Z,97023.22
2022-09-28T10:31:40.635Z,97022.75
2022-09-28T10:34:09.110Z,97034.38
2022-09-28T10:36:47.756Z,97023.38
2022-09-28T10:39:32.814Z,97017.25
2022-09-28T10:42:01.556Z,97026.53
2022-09-28T10:44:28.408Z,97029.44
2022-09-28T10:47:08.967Z,97038.91
2022-09-28T10:49:47.259Z,97029.38
2022-09-28T10:52:40.034Z,97023.09
2022-09-28T10:55:21.365Z,97033.63
2022-09-28T10:57:48.238Z,97018.13
2022-09-28T11:00:42.447Z,97021.56
2022-09-28T11:03:23.047Z,97017.50
2022-09-28T11:06:02.278Z,97022.25
2022-09-28T11:08:33.564Z,97016.41
2022-09-28T11:11:14.698Z,97017.06
2022-09-28T11:13:43.926Z,97026.47
2022-09-28T11:16:21.153Z,97021.25
2022-09-28T11:18:48.909Z,97022.47
2022-09-28T11:21:18.860Z,97019.28
2022-09-28T11:24:05.525Z,97024.47
2022-09-28T11:26:39.029Z,97024.34
2022-09-28T11:29:05.761Z,97025.59
2022-09-28T11:31:32.101Z,97012.84
2022-09-28T11:34:13.536Z,97018.56
2022-09-28T11:36:52.514Z,97017.53
2022-09-28T11:39:36.790Z,97014.69
2022-09-28T11:42:17.657Z,97026.03
2022-09-28T11:44:45.599Z,97021.16
2022-09-28T11:47:23.935Z,97018.31
2022-09-28T11:50:11.827Z,97016.25
2022-09-28T11:53:04.651Z,97017.78
2022-09-28T11:55:42.955Z,97010.16
2022-09-28T11:58:28.909Z,97015.09
2022-09-28T12:01:08.247Z,97012.53
2022-09-28T12:03:41.328Z,97004.38
2022-09-28T12:06:16.230Z,96999.81
2022-09-28T12:08:48.675Z,97008.16
2022-09-28T12:11:20.243Z,97005.63
2022-09-28T12:13:49.442Z,97012.56
2022-09-28T12:19:25.438Z,97010.03
2022-09-28T12:21:57.777Z,97015.97
2022-09-28T12:24:43.135Z,97009.25
2022-09-28T12:27:31.318Z,97008.78
2022-09-28T12:30:12.058Z,97011.91
2022-09-28T12:32:41.463Z,97003.41
2022-09-28T12:35:19.771Z,97010.03
2022-09-28T12:38:30.745Z,96999.47
2022-09-28T12:41:05.966Z,97005.25
2022-09-28T12:43:44.450Z,96997.97
2022-09-28T12:46:30.735Z,97003.22
2022-09-28T12:50:13.888Z,97009.00
2022-09-28T12:52:31.750Z,97012.38
2022-09-28T12:55:35.017Z,97001.09
2022-09-28T12:58:30.859Z,97003.09
2022-09-28T13:01:25.280Z,97001.91
2022-09-28T13:04:19.551Z,97015.72
2022-09-28T13:07:13.517Z,97019.53
2022-09-28T13:10:10.906Z,97021.34
2022-09-28T13:12:55.458Z,97012.81
2022-09-28T13:15:43.865Z,97015.00
2022-09-28T13:18:24.681Z,97002.19
2022-09-28T13:21:00.033Z,97007.50
2022-09-28T13:23:35.434Z,97000.97
2022-09-28T13:26:11.644Z,97003.84
2022-09-28T13:28:39.713Z,96998.47
2022-09-28T13:31:07.263Z,97002.31
2022-09-28T13:33:36.868Z,97001.50
2022-09-28T13:36:25.181Z,97011.19
2022-09-28T13:38:53.118Z,97008.19
2022-09-28T13:41:21.546Z,97006.88
2022-09-28T13:43:59.965Z,97019.25
2022-09-28T13:46:50.742Z,97021.31
2022-09-28T13:49:20.548Z,97017.66
2022-09-28T13:51:59.707Z,97009.69
2022-09-28T13:54:41.884Z,97018.88
2022-09-28T13:57:17.525Z,97011.97
2022-09-28T14:00:01.539Z,97010.22
2022-09-28T14:02:33.738Z,97012.94
2022-09-28T14:05:23.356Z,97018.47
2022-09-28T14:08:10.362Z,97016.63
2022-09-28T14:10:50.478Z,97026.13
2022-09-28T14:13:41.818Z,97021.09
2022-09-28T14:16:29.509Z,97030.44
2022-09-28T14:19:18.878Z,97037.47
2022-09-28T14:22:00.229Z,97030.50
2022-09-28T14:24:55.166Z,97030.50
2022-09-28T14:27:57.588Z,97032.56
2022-09-28T14:30:27.590Z,97032.84
2022-09-28T14:32:59.209Z,97035.53
2022-09-28T14:35:34.452Z,97032.06
2022-09-28T14:38:06.059Z,97034.75
2022-09-28T14:41:03.713Z,97038.31
2022-09-28T14:43:37.685Z,97045.56
2022-09-28T14:46:09.957Z,97040.44
2022-09-28T14:48:54.553Z,97029.84
2022-09-28T14:51:26.707Z,97043.47
2022-09-28T14:53:54.844Z,97045.81
2022-09-28T14:56:22.275Z,97045.50
2022-09-28T14:58:54.883Z,97042.72
2022-09-28T15:01:23.192Z,97043.25
2022-09-28T15:03:54.498Z,97043.16
2022-09-28T15:06:25.160Z,97039.63
2022-09-28T15:08:51.590Z,97049.47
2022-09-28T15:11:25.966Z,97038.50
2022-09-28T15:14:06.105Z,97046.88
2022-09-28T15:16:32.883Z,97044.78
2022-09-28T15:18:59.343Z,97045.78
2022-09-28T15:21:34.106Z,97044.41
2022-09-28T15:24:00.586Z,97038.13
2022-09-28T15:26:35.113Z,97045.31
2022-09-28T15:29:01.589Z,97037.66
2022-09-28T15:31:33.952Z,97033.66
2022-09-28T15:34:00.356Z,97035.94
2022-09-28T15:36:30.033Z,97034.28
2022-09-28T15:39:00.596Z,97048.34
2022-09-28T15:41:28.299Z,97044.56
2022-09-28T15:44:12.268Z,97046.72
2022-09-28T15:46:42.172Z,97048.84
2022-09-28T15:49:26.369Z,97052.75
2022-09-28T15:51:54.733Z,97053.50
2022-09-28T15:54:37.466Z,97051.38
2022-09-28T15:57:03.940Z,97050.63
2022-09-28T15:59:31.677Z,97054.91
2022-09-28T16:02:12.250Z,97052.72
2022-09-28T16:04:40.172Z,97051.06
2022-09-28T16:07:12.544Z,97049.34
2022-09-28T16:10:02.290Z,97056.16
2022-09-28T16:12:54.533Z,97058.09
2022-09-28T16:15:28.769Z,97065.81
2022-09-28T16:17:58.219Z,97065.34
2022-09-28T16:20:32.283Z,97066.59
2022-09-28T16:23:01.791Z,97063.94
2022-09-28T16:25:28.421Z,97069.78
2022-09-28T16:27:55.461Z,97065.16
2022-09-28T16:30:30.506Z,97073.84
2022-09-28T16:33:01.598Z,97070.78
2022-09-28T16:35:32.000Z,97064.28
2022-09-28T16:37:59.813Z,97066.75
2022-09-28T16:40:27.269Z,97074.19
2022-09-28T16:42:58.405Z,97072.25
2022-09-28T16:45:24.811Z,97075.41
2022-09-28T16:47:51.874Z,97076.44
2022-09-28T16:50:19.916Z,97078.25
2022-09-28T16:52:50.683Z,97076.31
2022-09-28T16:58:03.987Z,97086.84
2022-09-28T17:00:30.503Z,97089.69
2022-09-28T17:02:57.046Z,97082.84
2022-09-28T17:05:23.573Z,97092.41
2022-09-28T17:08:00.384Z,97092.56
2022-09-28T17:10:49.989Z,97091.09
2022-09-28T17:13:26.162Z,97102.66
2022-09-28T17:15:53.829Z,97099.31
2022-09-28T17:18:20.568Z,97097.47
2022-09-28T17:20:50.191Z,97100.28
2022-09-28T17:23:17.154Z,97105.78
2022-09-28T17:25:44.725Z,97113.81
2022-09-28T17:28:25.907Z,97116.03
2022-09-28T17:30:52.643Z,97116.97
2022-09-28T17:33:19.158Z,97112.34
2022-09-28T17:35:46.479Z,97114.09
2022-09-28T17:38:14.920Z,97122.22
2022-09-28T17:40:45.051Z,97126.06
2022-09-28T17:43:11.621Z,97124.91
2022-09-28T17:45:39.249Z,97134.97
2022-09-28T17:48:16.342Z,97140.09
2022-09-28T17:50:46.412Z,97146.69
2022-09-28T17:53:13.797Z,97141.16
2022-09-28T17:55:40.481Z,97144.63
2022-09-28T17:58:21.607Z,97147.16
2022-09-28T18:00:50.160Z,97147.63
2022-09-28T18:03:21.622Z,97146.44
2022-09-28T18:06:07.857Z,97160.34
2022-09-28T18:08:37.212Z,97158.56
2022-09-28T18:11:03.596Z,97166.22
2022-09-28T18:13:30.017Z,97156.72
2022-09-28T18:15:56.819Z,97172.59
2022-09-28T18:18:24.570Z,97172.25
2022-09-28T18:20:51.635Z,97178.47
2022-09-28T18:23:18.360Z,97177.88
2022-09-28T18:25:46.355Z,97179.94
2022-09-28T18:28:13.549Z,97188.38
2022-09-28T18:30:42.877Z,97194.25
2022-09-28T18:33:10.717Z,97195.16
2022-09-28T18:35:37.283Z,97200.81
2022-09-28T18:38:04.824Z,97202.06
2022-09-28T18:40:35.588Z,97205.16
2022-09-28T18:43:02.330Z,97220.06
2022-09-28T18:45:28.894Z,97223.63
2022-09-28T18:47:55.455Z,97226.13
2022-09-28T18:50:21.845Z,97234.97
2022-09-28T18:52:48.332Z,97229.41
2022-09-28T18:55:14.668Z,97237.09
2022-09-28T18:57:41.116Z,97235.84
2022-09-28T19:00:10.573Z,97237.38
2022-09-28T19:02:37.934Z,97237.69
2022-09-28T19:05:05.023Z,97248.19
2022-09-28T19:07:32.316Z,97252.78
2022-09-28T19:09:58.762Z,97248.34
2022-09-28T19:12:25.187Z,97247.75
2022-09-28T19:14:51.784Z,97250.25
2022-09-28T19:17:18.257Z,97251.91
2022-09-28T19:19:44.893Z,97254.00
2022-09-28T19:22:12.111Z,97245.88
2022-09-28T19:24:38.647Z,97256.50
2022-09-28T19:27:04.990Z,97259.41
2022-09-28T19:29:31.362Z,97253.91
2022-09-28T19:31:57.711Z,97261.50
2022-09-28T19:34:24.052Z,97253.81
2022-09-28T19:36:50.537Z,97257.72
2022-09-28T19:39:17.145Z,97259.19
2022-09-28T19:41:45.008Z,97263.31
2022-09-28T19:44:15.846Z,97272.34
2022-09-28T19:46:42.310Z,97271.28
2022-09-28T19:49:12.127Z,97280.69
2022-09-28T19:52:01.536Z,97277.84
2022-09-28T19:54:27.999Z,97280.88
2022-09-28T19:56:54.578Z,97286.25
2022-09-28T19:59:21.256Z,97283.00
2022-09-28T20:01:49.393Z,97282.03
2022-09-28T20:04:16.591Z,97283.84
2022-09-28T20:06:43.193Z,97284.09
2022-09-28T20:09:09.831Z,97291.81
2022-09-28T20:11:36.388Z,97294.03
2022-09-28T20:14:09.555Z,97295.03
2022-09-28T20:16:37.124Z,97293.59
2022-09-28T20:19:03.945Z,97293.41
2022-09-28T20:21:33.049Z,97297.56
2022-09-28T20:23:59.478Z,97293.41
2022-09-28T20:26:27.565Z,97298.91
2022-09-28T20:28:54.694Z,97300.53
2022-09-28T20:31:25.137Z,97303.63
2022-09-28T20:33:52.122Z,97303.81
2022-09-28T20:36:21.708Z,97310.63
2022-09-28T20:38:49.894Z,97313.69
2022-09-28T20:41:18.399Z,97305.72
2022-09-28T20:43:46.123Z,97309.47
2022-09-28T20:46:14.039Z,97314.78
2022-09-28T20:48:40.693Z,97311.94
2022-09-28T20:51:15.418Z,97316.22
2022-09-28T20:53:43.431Z,97314.81
2022-09-28T20:56:29.140Z,97323.44
2022-09-28T20:58:55.842Z,97318.38
2022-09-28T21:01:27.853Z,97312.91
2022-09-28T21:03:57.002Z,97321.88
2022-09-28T21:06:25.723Z,97319.06
2022-09-28T21:08:52.663Z,97319.06
2022-09-28T21:11:21.848Z,97317.44
2022-09-28T21:13:51.606Z,97317.09
2022-09-28T21:16:18.009Z,97313.06
2022-09-28T21:18:44.985Z,97309.78
2022-09-28T21:21:17.273Z,97304.31
2022-09-28T21:23:44.815Z,97309.41
2022-09-28T21:26:21.835Z,97322.66
2022-09-28T21:28:48.345Z,97313.50
2022-09-28T21:31:15.173Z,97320.47
2022-09-28T21:33:41.757Z,97315.81
2022-09-28T21:36:08.502Z,97312.75
2022-09-28T21:38:35.046Z,97315.84
2022-09-28T21:41:01.567Z,97307.03
2022-09-28T21:43:29.835Z,97316.81
2022-09-28T21:45:56.414Z,97324.59
2022-09-28T21:48:24.717Z,97316.44
2022-09-28T21:50:58.671Z,97315.03
2022-09-28T21:53:28.151Z,97318.53
2022-09-28T21:55:55.369Z,97310.97
2022-09-28T21:58:27.027Z,97314.06
2022-09-28T22:01:00.715Z,97318.16
2022-09-28T22:03:30.731Z,97320.97
2022-09-28T22:05:57.596Z,97319.72
2022-09-28T22:08:24.662Z,97319.34
2022-09-28T22:11:01.458Z,97313.22
2022-09-28T22:13:32.831Z,97321.59
2022-09-28T22:16:00.365Z,97312.19
2022-09-28T22:18:28.385Z,97309.78
2022-09-28T22:21:06.345Z,97309.38
2022-09-28T22:23:33.996Z,97304.69
2022-09-28T22:26:09.321Z,97310.00
2022-09-28T22:28:36.012Z,97303.09
2022-09-28T22:31:02.590Z,97301.03
2022-09-28T22:33:29.323Z,97304.50
2022-09-28T22:35:55.944Z,97302.88
2022-09-28T22:38:23.975Z,97307.94
2022-09-28T22:40:52.703Z,97312.06
2022-09-28T22:43:19.193Z,97310.44
2022-09-28T22:45:45.780Z,97311.25
2022-09-28T22:48:12.979Z,97305.13
2022-09-28T22:50:39.628Z,97307.59
2022-09-28T22:53:06.373Z,97303.50
2022-09-28T22:55:32.808Z,97305.53
2022-09-28T22:58:01.732Z,97311.84
2022-09-28T23:00:28.652Z,97308.41
2022-09-28T23:02:55.356Z,97315.53
2022-09-28T23:05:21.796Z,97309.22
2022-09-28T23:07:48.153Z,97309.63
2022-09-28T23:10:14.566Z,97310.84
2022-09-28T23:12:41.529Z,97316.53
2022-09-28T23:15:08.710Z,97316.53
2022-09-28T23:17:35.346Z,97307.38
2022-09-28T23:20:02.259Z,97317.16
2022-09-28T23:22:28.618Z,97320.00
2022-09-28T23:24:57.301Z,97318.38
2022-09-28T23:27:23.669Z,97316.53
2022-09-28T23:29:50.595Z,97317.56
2022-09-28T23:32:17.221Z,97316.13
2022-09-28T23:34:43.873Z,97310.44
2022-09-28T23:37:10.798Z,97314.50
2022-09-28T23:39:37.256Z,97312.44
2022-09-28T23:42:03.961Z,97323.69
2022-09-28T23:44:30.639Z,97314.69
2022-09-28T23:46:57.581Z,97314.28
2022-09-28T23:49:23.945Z,97308.59
2022-09-28T23:51:50.291Z,97313.69
2022-09-28T23:54:16.685Z,97308.00
2022-09-28T23:56:42.979Z,97306.38
2022-09-28T23:59:09.303Z,97306.75
